Time;durP1;ratioP1;P1;durP2;ratioP2;P2;SDS_P1;SDS_P2;PMS_P1;PMS_P2;Temp;Humidity;BMP_temperature;BMP_pressure;BME280_temperature;BME280_humidity;BME280_pressure;Samples;Min_cycle;Max_cycle;Signal;HPM_P1;HPM_P2
2023/04/29 00:01:18;;;;;;;4.20;1.30;;;;;;;12.92;39.18;100402.59;107998;1288;21991;-61
2023/04/29 00:03:44;;;;;;;4.40;1.90;;;;;;;12.91;39.20;100402.27;108019;1288;21991;-61
2023/04/29 00:06:12;;;;;;;6.10;1.40;;;;;;;12.90;39.26;100399.31;108005;1288;22276;-61
2023/04/29 00:08:38;;;;;;;2.70;1.40;;;;;;;12.91;39.13;100399.80;107995;1288;21986;-59
2023/04/29 00:11:04;;;;;;;4.40;1.80;;;;;;;12.88;39.26;100395.45;107997;1288;21992;-62
2023/04/29 00:13:29;;;;;;;2.70;1.30;;;;;;;12.88;39.18;100394.94;108043;1288;22033;-61
2023/04/29 00:15:55;;;;;;;3.90;1.40;;;;;;;12.85;39.14;100394.48;108010;1288;23238;-59
2023/04/29 00:18:21;;;;;;;4.20;1.40;;;;;;;12.82;39.15;100398.05;108032;1288;22939;-59
2023/04/29 00:20:47;;;;;;;3.50;1.30;;;;;;;12.78;39.37;100397.43;108005;1288;21992;-61
2023/04/29 00:23:12;;;;;;;5.00;1.50;;;;;;;12.76;39.29;100397.48;107980;1288;22452;-60
2023/04/29 00:25:38;;;;;;;3.80;1.30;;;;;;;12.69;39.38;100391.80;108003;1288;22000;-60
2023/04/29 00:28:04;;;;;;;3.20;1.50;;;;;;;12.67;39.35;100387.28;108024;1288;22099;-62
2023/04/29 00:30:32;;;;;;;2.80;1.50;;;;;;;12.64;39.40;100389.79;108024;1288;21996;-60
2023/04/29 00:32:57;;;;;;;3.90;1.40;;;;;;;12.62;39.28;100386.67;108053;1288;21991;-60
2023/04/29 00:35:26;;;;;;;5.40;1.50;;;;;;;12.58;39.37;100384.27;108026;1288;21998;-59
2023/04/29 00:37:52;;;;;;;5.00;1.40;;;;;;;12.55;39.44;100388.95;108030;1288;21989;-61
2023/04/29 00:40:18;;;;;;;4.00;1.40;;;;;;;12.53;39.57;100386.67;107981;1288;23711;-60
2023/04/29 00:42:43;;;;;;;5.40;1.50;;;;;;;12.51;39.52;100387.25;108012;1288;21989;-60
2023/04/29 00:45:12;;;;;;;6.30;1.50;;;;;;;12.48;39.56;100390.30;107997;1288;23287;-61
2023/04/29 00:47:38;;;;;;;4.30;1.50;;;;;;;12.47;39.60;100391.20;108005;1288;21992;-59
2023/04/29 00:50:05;;;;;;;3.40;1.70;;;;;;;12.45;39.57;100389.48;107990;1288;21992;-62
2023/04/29 00:52:31;;;;;;;4.50;1.30;;;;;;;12.43;39.72;100389.16;107909;1288;22029;-59
2023/04/29 00:54:56;;;;;;;3.30;1.50;;;;;;;12.39;39.77;100386.78;107843;1289;22047;-61
2023/04/29 00:57:22;;;;;;;4.30;1.60;;;;;;;12.34;39.88;100386.36;107817;1289;22465;-60
2023/04/29 00:59:48;;;;;;;3.20;1.40;;;;;;;12.27;40.00;100382.62;107834;1289;22002;-60
2023/04/29 01:02:14;;;;;;;6.20;1.50;;;;;;;12.24;39.96;100381.45;107867;1288;22567;-60
2023/04/29 01:04:40;;;;;;;3.30;1.10;;;;;;;12.20;40.04;100381.33;107734;1288;21990;-60
2023/04/29 01:07:47;;;;;;;3.20;1.30;;;;;;;12.18;40.18;100378.38;108049;1288;23761;-58
2023/04/29 01:10:26;;;;;;;5.40;1.60;;;;;;;12.17;39.93;100379.80;107849;1294;21990;-58
2023/04/29 01:13:00;;;;;;;3.00;1.30;;;;;;;12.16;40.03;100377.19;108059;1289;22006;-59
2023/04/29 01:15:32;;;;;;;4.30;1.70;;;;;;;12.15;39.99;100378.45;108008;1288;21989;-58
2023/04/29 01:18:10;;;;;;;4.00;1.50;;;;;;;12.15;40.21;100380.20;108086;1288;22029;-59
2023/04/29 01:20:36;;;;;;;3.70;1.50;;;;;;;12.13;40.12;100382.00;108059;1289;22024;-59
2023/04/29 01:23:02;;;;;;;3.00;1.20;;;;;;;12.12;40.31;100382.55;107803;1288;24152;-58
2023/04/29 01:25:28;;;;;;;3.20;1.50;;;;;;;12.06;40.22;100386.16;108035;1288;21992;-58
2023/04/29 01:28:19;;;;;;;3.00;1.30;;;;;;;12.05;40.25;100391.98;108010;1288;21993;-59
2023/04/29 01:30:48;;;;;;;4.60;1.30;;;;;;;12.03;40.29;100388.17;108020;1288;22004;-58
2023/04/29 01:33:40;;;;;;;4.70;1.50;;;;;;;12.02;40.18;100392.91;108102;1288;21994;-58
2023/04/29 01:36:25;;;;;;;3.80;1.60;;;;;;;12.03;40.27;100393.79;107964;1288;21987;-58
2023/04/29 01:39:09;;;;;;;3.70;1.60;;;;;;;12.02;40.22;100390.29;107959;1288;21995;-58
2023/04/29 01:41:45;;;;;;;5.00;1.50;;;;;;;11.96;40.34;100388.45;107995;1288;22759;-59
2023/04/29 01:44:19;;;;;;;5.50;1.60;;;;;;;11.97;40.48;100387.53;107232;1289;1002515;-58
2023/04/29 01:46:49;;;;;;;4.20;1.60;;;;;;;11.95;40.32;100394.07;108081;1288;22073;-59
2023/04/29 01:49:15;;;;;;;4.50;1.70;;;;;;;11.93;40.53;100394.45;108003;1289;21990;-59
2023/04/29 01:51:41;;;;;;;2.80;1.20;;;;;;;11.92;40.46;100392.72;107792;1288;22027;-60
2023/04/29 01:54:06;;;;;;;3.10;1.40;;;;;;;11.88;40.51;100392.27;108027;1288;21994;-60
2023/04/29 01:56:32;;;;;;;3.10;1.40;;;;;;;11.90;40.52;100393.65;106949;1288;1002914;-61
2023/04/29 01:58:58;;;;;;;5.90;1.80;;;;;;;11.91;40.62;100393.45;108041;1288;21999;-59
2023/04/29 02:01:23;;;;;;;4.50;1.80;;;;;;;11.91;40.68;100389.39;107996;1288;22006;-61
2023/04/29 02:03:49;;;;;;;4.00;1.50;;;;;;;11.88;40.71;100390.33;107976;1288;22112;-59
2023/04/29 02:06:15;;;;;;;3.70;1.70;;;;;;;11.85;40.74;100392.48;108009;1288;22042;-60
2023/04/29 02:08:41;;;;;;;3.50;1.50;;;;;;;11.82;40.93;100388.86;107998;1288;21996;-59
2023/04/29 02:11:06;;;;;;;6.90;1.80;;;;;;;11.78;41.01;100389.61;107301;1288;1002248;-59
2023/04/29 02:13:32;;;;;;;2.70;1.40;;;;;;;11.74;40.89;100387.75;107266;1288;1002408;-59
2023/04/29 02:16:08;;;;;;;3.20;1.40;;;;;;;11.70;40.93;100387.65;107250;1288;1002719;-60
2023/04/29 02:18:35;;;;;;;4.40;1.40;;;;;;;11.71;40.82;100394.13;108001;1288;22204;-59
2023/04/29 02:21:01;;;;;;;3.00;1.60;;;;;;;11.70;41.23;100398.72;107995;1288;21996;-60
2023/04/29 02:23:27;;;;;;;3.40;1.50;;;;;;;11.63;41.42;100398.48;107836;1288;21989;-60
2023/04/29 02:25:53;;;;;;;4.60;1.50;;;;;;;11.73;41.21;100402.71;108014;1288;21994;-61
2023/04/29 02:28:18;;;;;;;4.10;2.10;;;;;;;11.78;41.17;100404.39;108020;1288;22004;-60
2023/04/29 02:30:44;;;;;;;3.60;1.70;;;;;;;11.70;41.06;100402.41;108058;1288;21992;-60
2023/04/29 02:33:10;;;;;;;4.70;2.00;;;;;;;11.68;41.11;100404.73;108020;1288;21963;-60
2023/04/29 02:35:36;;;;;;;6.70;1.90;;;;;;;11.53;41.30;100404.44;108009;1288;22030;-60
2023/04/29 02:38:02;;;;;;;4.50;1.60;;;;;;;11.47;41.42;100411.04;107989;1288;21990;-60
2023/04/29 02:40:28;;;;;;;5.70;2.40;;;;;;;11.57;41.21;100411.05;108039;1288;21989;-61
2023/04/29 02:42:53;;;;;;;3.60;1.70;;;;;;;11.62;41.03;100411.85;108006;1288;22003;-60
2023/04/29 02:45:19;;;;;;;4.40;1.70;;;;;;;11.62;41.12;100409.41;108030;1288;21994;-60
2023/04/29 02:47:44;;;;;;;4.90;1.80;;;;;;;11.64;41.25;100413.77;107300;1288;1006162;-61
2023/04/29 02:50:10;;;;;;;2.60;1.40;;;;;;;11.55;41.45;100413.02;108053;1288;21985;-61
2023/04/29 02:52:36;;;;;;;4.40;1.60;;;;;;;11.52;41.32;100410.78;108006;1276;21992;-60
2023/04/29 02:55:02;;;;;;;3.70;1.50;;;;;;;11.51;41.35;100409.38;108019;1288;23784;-59
2023/04/29 02:57:28;;;;;;;4.70;1.60;;;;;;;11.57;41.40;100411.05;108004;1288;21992;-59
2023/04/29 02:59:54;;;;;;;3.60;1.70;;;;;;;11.59;41.28;100413.65;108044;1288;22002;-60
2023/04/29 03:02:20;;;;;;;3.30;1.40;;;;;;;11.59;41.30;100416.98;107307;1288;1003544;-61
2023/04/29 03:04:45;;;;;;;4.00;1.70;;;;;;;11.60;41.44;100415.77;108068;1288;22453;-60
2023/04/29 03:07:11;;;;;;;4.60;1.20;;;;;;;11.61;41.38;100419.77;108069;1288;21986;-60
2023/04/29 03:09:37;;;;;;;3.80;1.70;;;;;;;11.60;41.41;100421.90;107998;1288;22022;-59
2023/04/29 03:12:03;;;;;;;4.40;1.40;;;;;;;11.62;41.47;100421.52;108005;1288;23791;-61
2023/04/29 03:14:29;;;;;;;5.30;1.80;;;;;;;11.49;41.74;100424.70;108030;1288;22022;-60
2023/04/29 03:16:55;;;;;;;5.30;1.60;;;;;;;11.44;42.01;100423.20;108017;1288;21998;-61
2023/04/29 03:19:23;;;;;;;4.20;1.60;;;;;;;11.46;42.00;100426.34;107989;1276;21994;-60
2023/04/29 03:21:49;;;;;;;5.60;1.60;;;;;;;11.48;41.88;100427.54;108043;1288;21989;-60
2023/04/29 03:24:15;;;;;;;5.90;1.80;;;;;;;11.49;42.28;100426.63;107967;1288;22004;-59
2023/04/29 03:26:41;;;;;;;3.30;1.30;;;;;;;11.55;42.26;100428.12;108100;1288;21985;-60
2023/04/29 03:29:07;;;;;;;5.00;1.50;;;;;;;11.58;42.19;100430.55;108006;1288;21983;-59
2023/04/29 03:31:33;;;;;;;4.70;2.30;;;;;;;11.63;42.10;100427.66;108002;1288;21989;-63
2023/04/29 03:33:58;;;;;;;4.80;1.80;;;;;;;11.66;42.28;100428.32;107874;1276;22000;-61
2023/04/29 03:36:24;;;;;;;6.40;1.80;;;;;;;11.67;42.28;100427.95;108026;1288;22960;-60
2023/04/29 03:38:50;;;;;;;3.40;1.50;;;;;;;11.71;42.07;100429.80;107280;1288;1002373;-59
2023/04/29 03:41:16;;;;;;;4.30;1.60;;;;;;;11.77;42.09;100429.72;108003;1286;21999;-60
2023/04/29 03:43:43;;;;;;;4.30;1.70;;;;;;;11.79;42.22;100431.44;107840;1288;22048;-62
2023/04/29 03:46:09;;;;;;;3.90;1.50;;;;;;;11.81;42.19;100433.52;107997;1288;21995;-59
2023/04/29 03:48:35;;;;;;;4.80;1.50;;;;;;;11.97;42.02;100434.15;107957;1288;22046;-59
2023/04/29 03:51:01;;;;;;;3.10;1.30;;;;;;;12.13;41.69;100439.52;107946;1288;21990;-59
2023/04/29 03:53:27;;;;;;;4.90;1.90;;;;;;;12.21;41.60;100443.08;107988;1288;21968;-63
2023/04/29 03:55:53;;;;;;;3.70;1.40;;;;;;;12.24;41.90;100445.14;107371;1288;1002483;-60
2023/04/29 03:58:18;;;;;;;4.30;1.60;;;;;;;12.28;41.91;100442.41;108085;1288;22010;-62
2023/04/29 04:00:44;;;;;;;23.50;16.40;;;;;;;12.32;41.85;100445.16;108050;1288;22039;-61
2023/04/29 04:03:10;;;;;;;16.00;11.00;;;;;;;12.43;41.66;100443.55;107327;1288;1002454;-62
2023/04/29 04:05:36;;;;;;;10.10;2.80;;;;;;;12.47;41.77;100442.41;108181;1287;23632;-62
2023/04/29 04:08:02;;;;;;;7.20;2.40;;;;;;;12.55;41.61;100445.08;107719;1288;21998;-61
2023/04/29 04:10:28;;;;;;;3.80;1.70;;;;;;;12.66;41.61;100445.39;107999;1288;23625;-60
2023/04/29 04:12:54;;;;;;;5.90;1.80;;;;;;;12.75;41.68;100446.08;107962;1288;22000;-60
2023/04/29 04:15:21;;;;;;;6.30;1.60;;;;;;;12.88;41.79;100449.71;108011;1288;22042;-62
2023/04/29 04:17:46;;;;;;;6.40;2.00;;;;;;;13.00;41.68;100446.64;107223;1288;1003073;-61
2023/04/29 04:20:12;;;;;;;4.50;1.60;;;;;;;13.16;41.70;100444.35;108044;1288;21985;-60
2023/04/29 04:22:38;;;;;;;6.60;2.00;;;;;;;13.24;41.51;100448.23;108030;1288;22002;-60
2023/04/29 04:25:05;;;;;;;5.60;1.70;;;;;;;13.37;41.38;100449.73;107217;1288;1002869;-60
2023/04/29 04:27:31;;;;;;;5.00;1.70;;;;;;;13.50;41.29;100445.92;108012;1285;21986;-60
2023/04/29 04:29:56;;;;;;;6.40;1.50;;;;;;;13.57;41.11;100447.01;107966;1288;21995;-62
2023/04/29 04:32:22;;;;;;;3.90;1.70;;;;;;;13.64;41.25;100449.30;107786;1288;22037;-62
2023/04/29 04:34:48;;;;;;;3.70;1.60;;;;;;;13.72;41.09;100444.87;107888;1288;21997;-60
2023/04/29 04:37:17;;;;;;;5.60;1.70;;;;;;;13.78;40.93;100446.67;108045;1288;21987;-60
2023/04/29 04:39:43;;;;;;;5.90;1.70;;;;;;;13.86;40.63;100444.36;107994;1288;23113;-60
2023/04/29 04:42:08;;;;;;;3.50;1.40;;;;;;;13.95;40.57;100437.42;108177;1286;21986;-62
2023/04/29 04:44:34;;;;;;;5.40;2.20;;;;;;;14.07;40.63;100437.31;107983;1288;21988;-60
2023/04/29 04:47:00;;;;;;;6.90;1.70;;;;;;;14.22;40.75;100436.57;108004;1288;22045;-60
2023/04/29 04:49:26;;;;;;;5.50;2.40;;;;;;;14.33;40.44;100433.80;107981;1288;22011;-61
2023/04/29 04:51:52;;;;;;;5.90;1.70;;;;;;;14.41;40.04;100431.28;108078;1288;22000;-62
2023/04/29 04:54:18;;;;;;;3.90;1.60;;;;;;;14.45;40.03;100429.23;108006;1288;21994;-61
2023/04/29 04:56:44;;;;;;;3.70;1.90;;;;;;;14.54;40.09;100432.35;108501;1288;22173;-61
2023/04/29 04:59:09;;;;;;;4.20;1.70;;;;;;;14.67;40.09;100434.98;108029;1288;22028;-60
2023/04/29 05:01:35;;;;;;;4.70;2.00;;;;;;;14.83;40.20;100437.73;107276;1288;1002458;-60
2023/04/29 05:04:02;;;;;;;9.20;1.80;;;;;;;15.01;40.27;100433.84;108075;1288;21986;-61
2023/04/29 05:06:28;;;;;;;2.70;1.30;;;;;;;15.21;40.13;100432.74;107867;1288;21995;-62
2023/04/29 05:08:54;;;;;;;4.40;1.70;;;;;;;15.36;39.46;100435.98;108009;1288;21994;-61
2023/04/29 05:11:20;;;;;;;3.60;1.40;;;;;;;15.54;39.40;100434.55;107965;1288;23025;-60
2023/04/29 05:13:47;;;;;;;4.20;1.80;;;;;;;15.74;39.42;100433.20;108025;1288;21989;-61
2023/04/29 05:16:12;;;;;;;5.60;1.90;;;;;;;15.93;39.35;100436.30;108051;1288;22431;-61
2023/04/29 05:18:38;;;;;;;8.60;2.20;;;;;;;16.10;39.02;100437.69;108022;1288;22013;-61
2023/04/29 05:21:04;;;;;;;5.00;1.40;;;;;;;16.25;38.49;100438.60;108050;1288;22021;-61
2023/04/29 05:23:30;;;;;;;4.50;1.50;;;;;;;16.39;38.00;100435.06;108006;1288;22244;-60
2023/04/29 05:25:56;;;;;;;4.50;1.70;;;;;;;16.54;38.06;100431.02;107998;1288;22027;-62
2023/04/29 05:28:22;;;;;;;5.20;1.60;;;;;;;16.67;38.39;100430.52;108013;1288;21992;-62
2023/04/29 05:30:51;;;;;;;3.30;1.20;;;;;;;16.85;38.36;100425.09;107979;1288;23728;-62
2023/04/29 05:33:17;;;;;;;5.00;1.80;;;;;;;17.00;37.66;100421.36;107814;1288;23612;-61
2023/04/29 05:35:42;;;;;;;7.70;4.10;;;;;;;17.13;37.64;100424.27;107982;1288;21992;-62
2023/04/29 05:38:08;;;;;;;10.50;5.70;;;;;;;17.28;37.56;100423.68;107994;1288;23621;-62
2023/04/29 05:40:34;;;;;;;23.40;14.20;;;;;;;17.35;37.15;100422.85;108000;1288;21995;-63
2023/04/29 05:43:00;;;;;;;9.30;5.40;;;;;;;17.42;36.90;100418.84;107998;1288;22758;-60
2023/04/29 05:45:26;;;;;;;5.10;2.50;;;;;;;17.51;36.95;100424.15;107976;1288;22001;-62
2023/04/29 05:47:52;;;;;;;4.50;2.00;;;;;;;17.61;36.99;100424.29;107993;1288;21989;-61
2023/04/29 05:50:17;;;;;;;5.10;1.60;;;;;;;17.70;36.90;100421.62;107995;1288;21997;-62
2023/04/29 05:52:43;;;;;;;4.20;1.60;;;;;;;17.80;36.90;100423.86;107996;1288;21990;-62
2023/04/29 05:55:09;;;;;;;16.30;10.90;;;;;;;17.93;36.87;100418.02;108045;1288;21996;-61
2023/04/29 05:57:35;;;;;;;34.00;20.70;;;;;;;18.07;36.61;100415.84;108007;1288;22023;-61
2023/04/29 06:00:01;;;;;;;15.80;9.70;;;;;;;18.18;36.35;100417.52;107977;1288;21978;-60
2023/04/29 06:02:26;;;;;;;5.00;2.80;;;;;;;18.30;36.64;100415.73;107967;1287;21984;-60
2023/04/29 06:04:52;;;;;;;6.80;2.70;;;;;;;18.43;36.47;100409.88;107992;1288;23716;-61
2023/04/29 06:07:17;;;;;;;4.10;1.90;;;;;;;18.51;36.19;100410.90;108014;1288;21986;-60
2023/04/29 06:09:43;;;;;;;4.60;1.70;;;;;;;18.67;36.38;100409.67;107990;1288;21989;-61
2023/04/29 06:12:09;;;;;;;3.00;1.60;;;;;;;18.82;36.32;100407.73;108014;1288;22046;-61
2023/04/29 06:14:35;;;;;;;3.60;1.50;;;;;;;18.88;35.63;100411.39;107988;1288;22721;-60
2023/04/29 06:17:03;;;;;;;2.20;1.10;;;;;;;18.94;35.67;100409.52;107985;1288;22455;-62
2023/04/29 06:19:28;;;;;;;5.00;1.50;;;;;;;19.04;35.44;100410.48;107890;1288;141447;-61
2023/04/29 06:21:54;;;;;;;11.70;1.90;;;;;;;19.11;35.26;100411.39;107975;1283;23624;-62
2023/04/29 06:24:20;;;;;;;4.40;1.70;;;;;;;19.22;35.18;100416.04;108004;1288;21996;-61
2023/04/29 06:26:45;;;;;;;8.60;1.50;;;;;;;19.34;34.54;100412.08;108003;1288;21998;-62
2023/04/29 06:29:11;;;;;;;6.40;1.40;;;;;;;19.50;34.88;100409.90;107993;1288;22000;-61
2023/04/29 06:31:37;;;;;;;4.00;1.50;;;;;;;19.64;34.64;100410.09;107952;1288;22001;-62
2023/04/29 06:34:03;;;;;;;6.20;1.50;;;;;;;19.67;34.22;100405.16;107967;1288;21989;-60
2023/04/29 06:36:28;;;;;;;5.80;1.40;;;;;;;19.61;33.15;100406.70;107981;1288;22029;-60
2023/04/29 06:38:54;;;;;;;3.20;1.40;;;;;;;19.55;33.06;100410.20;107996;1288;22053;-59
2023/04/29 06:41:20;;;;;;;5.00;1.40;;;;;;;19.53;33.35;100408.48;108006;1280;21990;-61
2023/04/29 06:43:45;;;;;;;5.40;1.30;;;;;;;19.57;32.92;100412.95;106531;1288;1002558;-58
2023/04/29 06:46:11;;;;;;;4.00;1.50;;;;;;;19.68;33.25;100412.42;107972;1288;22000;-59
2023/04/29 06:48:37;;;;;;;4.80;1.70;;;;;;;19.76;33.22;100412.51;108020;1288;21991;-61
2023/04/29 06:51:03;;;;;;;6.80;1.50;;;;;;;19.94;33.69;100417.86;107992;1288;22008;-59
2023/04/29 06:53:29;;;;;;;6.50;1.60;;;;;;;20.24;33.47;100417.23;107988;1288;21992;-58
2023/04/29 06:55:54;;;;;;;5.10;1.30;;;;;;;20.57;33.75;100412.52;108011;1288;22009;-60
2023/04/29 06:58:20;;;;;;;6.60;1.60;;;;;;;20.92;33.34;100412.20;108009;1288;23668;-60
2023/04/29 07:00:47;;;;;;;3.00;1.20;;;;;;;21.07;32.53;100413.89;108051;1288;21991;-62
2023/04/29 07:03:13;;;;;;;5.40;1.10;;;;;;;21.12;32.37;100416.86;108020;1288;22001;-63
2023/04/29 07:05:40;;;;;;;6.90;1.30;;;;;;;21.19;32.13;100417.92;108025;1288;21987;-63
2023/04/29 07:08:07;;;;;;;4.20;1.30;;;;;;;21.27;31.86;100416.76;107769;1288;23077;-61
2023/04/29 07:10:33;;;;;;;3.20;1.20;;;;;;;21.42;32.38;100417.34;108070;1288;22000;-58
2023/04/29 07:12:59;;;;;;;4.30;1.30;;;;;;;21.64;32.57;100416.83;107964;1288;22010;-59
2023/04/29 07:15:26;;;;;;;3.60;1.00;;;;;;;21.78;32.11;100417.59;107976;1288;21989;-60
2023/04/29 07:17:52;;;;;;;3.20;1.10;;;;;;;21.92;31.09;100414.10;108050;1288;22000;-61
2023/04/29 07:20:18;;;;;;;5.20;1.20;;;;;;;22.12;31.19;100412.58;107807;1285;21992;-60
2023/04/29 07:22:44;;;;;;;2.00;0.90;;;;;;;22.33;31.01;100402.02;108067;1288;22169;-60
2023/04/29 07:25:09;;;;;;;5.40;1.30;;;;;;;22.43;30.67;100405.70;108048;1288;22158;-61
2023/04/29 07:27:35;;;;;;;3.10;0.90;;;;;;;22.39;30.58;100396.25;107965;1275;22982;-59
2023/04/29 07:30:02;;;;;;;2.80;1.00;;;;;;;22.44;30.55;100398.14;107975;1288;22040;-62
2023/04/29 07:32:30;;;;;;;4.10;1.10;;;;;;;22.48;30.01;100401.01;107927;1289;23068;-60
2023/04/29 07:34:56;;;;;;;3.60;1.20;;;;;;;22.60;31.07;100395.53;107937;1288;22497;-61
2023/04/29 07:37:22;;;;;;;6.30;1.00;;;;;;;22.87;30.60;100399.91;108019;1288;21995;-61
2023/04/29 07:39:48;;;;;;;4.10;1.20;;;;;;;22.97;29.36;100398.77;107927;1288;21991;-61
2023/04/29 07:42:13;;;;;;;7.70;0.90;;;;;;;23.06;29.72;100393.02;107986;1288;21998;-60
2023/04/29 07:44:39;;;;;;;4.40;1.20;;;;;;;23.23;30.66;100386.74;108129;1288;22271;-62
2023/04/29 07:47:05;;;;;;;2.30;1.10;;;;;;;23.48;30.69;100384.07;107993;1288;21993;-59
2023/04/29 07:49:32;;;;;;;2.80;1.10;;;;;;;23.70;30.01;100392.31;107983;1288;21993;-60
2023/04/29 07:51:57;;;;;;;5.90;1.20;;;;;;;23.83;29.66;100391.93;107989;1288;21988;-61
2023/04/29 07:54:23;;;;;;;1.80;0.80;;;;;;;23.80;28.88;100393.98;107998;1286;22179;-63
2023/04/29 07:56:49;;;;;;;5.60;1.40;;;;;;;23.64;28.30;100388.36;107958;1288;21977;-61
2023/04/29 07:59:15;;;;;;;4.60;1.30;;;;;;;23.49;28.46;100379.53;108027;1288;22081;-62
2023/04/29 08:01:41;;;;;;;4.40;1.20;;;;;;;23.53;28.22;100383.55;108004;1288;23648;-62
2023/04/29 08:04:07;;;;;;;3.20;0.90;;;;;;;23.73;28.28;100376.29;107992;1288;21983;-62
2023/04/29 08:06:33;;;;;;;4.60;1.10;;;;;;;24.09;29.16;100379.80;108059;1282;21998;-62
2023/04/29 08:08:59;;;;;;;5.50;1.00;;;;;;;24.24;28.62;100379.00;108061;1288;21989;-62
2023/04/29 08:11:25;;;;;;;6.10;1.20;;;;;;;24.28;28.49;100380.48;108003;1285;23773;-61
2023/04/29 08:13:51;;;;;;;2.60;1.00;;;;;;;24.33;29.28;100383.35;107981;1288;22002;-60
2023/04/29 08:16:17;;;;;;;6.00;1.00;;;;;;;24.47;29.48;100377.02;107988;1288;21991;-62
2023/04/29 08:18:42;;;;;;;3.40;1.00;;;;;;;24.58;28.99;100363.29;108041;1288;21993;-60
2023/04/29 08:21:10;;;;;;;3.50;1.20;;;;;;;24.60;28.31;100363.73;107961;1282;21986;-63
2023/04/29 08:23:36;;;;;;;21.50;11.20;;;;;;;24.49;28.32;100371.33;107957;1288;23733;-62
2023/04/29 08:26:03;;;;;;;4.60;2.00;;;;;;;24.34;28.31;100368.05;107984;1288;21988;-62
2023/04/29 08:28:28;;;;;;;3.30;1.40;;;;;;;24.32;29.24;100362.66;107958;1288;21996;-59
2023/04/29 08:30:55;;;;;;;6.30;1.40;;;;;;;24.59;29.49;100360.79;107943;1288;22009;-62
2023/04/29 08:33:21;;;;;;;3.10;1.10;;;;;;;24.91;29.80;100355.23;108013;1288;22001;-62
2023/04/29 08:35:46;;;;;;;3.20;1.10;;;;;;;25.21;29.03;100351.82;107979;1288;22544;-61
2023/04/29 08:38:12;;;;;;;6.30;1.70;;;;;;;25.31;28.87;100346.45;108074;1288;21995;-60
2023/04/29 08:40:42;;;;;;;7.20;1.00;;;;;;;25.41;28.36;100344.42;108016;1285;22638;-60
2023/04/29 08:43:09;;;;;;;3.90;1.20;;;;;;;25.46;28.42;100345.15;108013;1288;21987;-60
2023/04/29 08:45:35;;;;;;;6.00;1.20;;;;;;;25.55;28.82;100346.98;107993;1288;21990;-63
2023/04/29 08:48:06;;;;;;;5.00;1.10;;;;;;;25.72;29.19;100351.05;107994;1286;21993;-63
2023/04/29 08:50:40;;;;;;;5.30;1.10;;;;;;;25.83;28.75;100353.83;108077;1288;24403;-62
2023/04/29 08:53:07;;;;;;;9.50;1.50;;;;;;;25.80;28.43;100351.34;107988;1288;21992;-60
2023/04/29 08:55:41;;;;;;;3.90;1.50;;;;;;;25.71;28.46;100346.81;108058;1288;21985;-60
2023/04/29 08:58:07;;;;;;;3.00;1.40;;;;;;;25.68;28.83;100339.54;108051;1288;21984;-61
2023/04/29 09:00:34;;;;;;;6.30;1.10;;;;;;;25.76;28.91;100342.49;107926;1288;22036;-62
2023/04/29 09:03:00;;;;;;;4.20;1.30;;;;;;;25.91;29.51;100337.60;107957;1288;21989;-61
2023/04/29 09:05:26;;;;;;;4.50;1.10;;;;;;;26.08;28.95;100339.88;108756;1288;21996;-60
2023/04/29 09:07:51;;;;;;;4.50;1.10;;;;;;;26.11;28.81;100338.73;107326;1288;1002600;-63
2023/04/29 09:10:17;;;;;;;3.50;1.00;;;;;;;26.16;29.39;100331.20;107874;1288;21986;-60
2023/04/29 09:12:43;;;;;;;6.30;0.90;;;;;;;26.33;28.46;100329.67;107638;1288;22053;-61
2023/04/29 09:15:10;;;;;;;3.80;1.10;;;;;;;26.52;28.56;100326.74;107992;1288;21960;-63
2023/04/29 09:17:40;;;;;;;3.90;1.00;;;;;;;26.68;27.89;100320.40;108154;1288;21990;-61
2023/04/29 09:20:18;;;;;;;6.10;1.40;;;;;;;26.60;27.44;100311.89;108069;1288;22003;-61
2023/04/29 09:22:48;;;;;;;8.20;1.00;;;;;;;26.63;27.82;100305.34;107965;1288;22006;-62
2023/04/29 09:25:14;;;;;;;4.10;1.20;;;;;;;26.67;27.53;100305.91;107998;1288;22026;-60
2023/04/29 09:27:40;;;;;;;2.80;1.00;;;;;;;26.66;27.75;100299.69;107924;1286;23518;-61
2023/04/29 09:30:06;;;;;;;7.30;1.10;;;;;;;26.68;27.86;100304.25;107817;1289;22003;-59
2023/04/29 09:32:32;;;;;;;2.80;0.80;;;;;;;26.81;28.04;100294.89;107997;1288;21999;-60
2023/04/29 09:35:18;;;;;;;3.80;1.00;;;;;;;26.98;27.38;100287.95;107911;1288;21987;-60
2023/04/29 09:37:44;;;;;;;3.90;1.10;;;;;;;27.05;27.43;100291.89;107995;1288;21997;-61
2023/04/29 09:40:29;;;;;;;6.60;1.00;;;;;;;26.95;26.84;100278.13;107959;1288;23076;-62
2023/04/29 09:42:55;;;;;;;4.30;0.90;;;;;;;26.99;27.85;100276.14;107954;1288;21999;-60
2023/04/29 09:45:37;;;;;;;6.90;1.20;;;;;;;27.32;27.15;100273.09;107962;1287;21989;-63
2023/04/29 09:48:04;;;;;;;5.30;1.00;;;;;;;27.65;26.94;100271.73;107959;1286;21992;-61
2023/04/29 09:50:31;;;;;;;10.30;1.80;;;;;;;27.76;26.42;100267.36;108012;1288;22042;-62
2023/04/29 09:52:57;;;;;;;8.50;1.10;;;;;;;27.92;25.80;100259.62;108014;1288;21994;-60
2023/04/29 09:55:23;;;;;;;6.40;1.10;;;;;;;28.13;26.49;100268.54;107937;1288;22002;-61
2023/04/29 09:57:49;;;;;;;5.30;0.80;;;;;;;28.12;26.02;100262.80;107952;1288;22005;-62
2023/04/29 10:00:14;;;;;;;6.60;1.20;;;;;;;28.21;25.49;100262.42;108018;1288;23743;-63
2023/04/29 10:02:42;;;;;;;3.80;0.80;;;;;;;28.34;24.49;100265.80;108012;1288;22004;-65
2023/04/29 10:05:09;;;;;;;9.70;1.10;;;;;;;28.52;24.34;100257.46;108005;1288;24436;-62
2023/04/29 10:07:35;;;;;;;6.60;1.00;;;;;;;28.64;23.84;100262.20;108013;1288;22009;-63
2023/04/29 10:10:07;;;;;;;6.50;1.30;;;;;;;28.69;24.15;100263.34;108223;1288;21998;-63
2023/04/29 10:12:36;;;;;;;7.30;1.10;;;;;;;28.70;23.60;100263.45;108098;1288;23735;-62
2023/04/29 10:15:04;;;;;;;6.60;1.30;;;;;;;28.59;23.04;100259.34;107744;1288;22001;-62
2023/04/29 10:17:48;;;;;;;7.60;1.00;;;;;;;28.72;23.05;100260.34;108077;1288;21990;-61
2023/04/29 10:20:17;;;;;;;4.90;1.10;;;;;;;28.87;23.55;100266.97;108036;1288;21992;-61
2023/04/29 10:22:47;;;;;;;4.50;1.40;;;;;;;28.83;22.95;100264.59;107873;1288;23644;-63
2023/04/29 10:25:18;;;;;;;6.70;1.00;;;;;;;28.77;23.23;100262.25;108028;1288;21991;-64
2023/04/29 10:27:44;;;;;;;7.90;1.20;;;;;;;28.64;22.74;100263.80;108017;1288;22022;-61
2023/04/29 10:30:14;;;;;;;11.60;1.70;;;;;;;28.63;23.30;100257.39;107987;1275;21995;-64
2023/04/29 10:32:40;;;;;;;7.40;1.40;;;;;;;28.52;23.00;100252.36;108064;1288;22016;-61
2023/04/29 10:35:10;;;;;;;6.00;1.10;;;;;;;28.44;23.31;100250.22;108004;1288;21986;-63
2023/04/29 10:37:37;;;;;;;5.90;1.20;;;;;;;28.52;23.12;100244.68;108043;1288;21993;-61
2023/04/29 10:40:17;;;;;;;6.40;1.10;;;;;;;28.71;22.61;100256.67;108033;1288;23812;-62
2023/04/29 10:42:44;;;;;;;8.60;1.20;;;;;;;28.81;23.73;100259.77;108012;1277;23065;-61
2023/04/29 10:45:34;;;;;;;5.50;1.00;;;;;;;28.85;23.29;100264.43;107986;1288;22457;-62
2023/04/29 10:48:07;;;;;;;13.80;1.20;;;;;;;28.88;23.38;100268.20;108004;1288;21998;-63
2023/04/29 10:50:45;;;;;;;6.30;1.20;;;;;;;28.74;23.32;100269.91;108068;1288;22014;-62
2023/04/29 10:53:13;;;;;;;6.70;1.20;;;;;;;28.77;24.16;100271.69;108004;1288;21989;-61
2023/04/29 10:55:38;;;;;;;4.10;0.80;;;;;;;28.88;24.11;100272.51;107892;1288;22764;-62
2023/04/29 10:58:04;;;;;;;4.30;1.00;;;;;;;29.00;23.92;100275.05;107811;1288;22104;-61
2023/04/29 11:00:31;;;;;;;3.40;1.00;;;;;;;28.98;23.06;100281.17;107913;1288;22007;-61
2023/04/29 11:02:59;;;;;;;4.70;1.10;;;;;;;28.91;22.65;100285.56;107656;1288;23631;-63
2023/04/29 11:05:35;;;;;;;5.00;1.20;;;;;;;29.07;23.38;100275.81;107983;1285;21989;-62
2023/04/29 11:08:23;;;;;;;3.60;0.90;;;;;;;29.26;23.59;100277.11;107984;1288;22046;-62
2023/04/29 11:10:52;;;;;;;2.80;0.80;;;;;;;29.32;23.79;100273.02;108023;1288;23116;-61
2023/04/29 11:13:26;;;;;;;7.20;1.00;;;;;;;29.33;23.17;100263.00;108100;1288;21987;-63
2023/04/29 11:15:52;;;;;;;4.30;1.00;;;;;;;29.48;23.32;100264.84;107977;1288;21989;-61
2023/04/29 11:18:18;;;;;;;5.70;1.70;;;;;;;29.68;23.54;100267.63;108027;1288;21995;-61